Cobble Hill, Canada
Current Conditions -  °F | °C
As of 6:00 AM on Thursday 29 Jan 2015 (Local Time) from CYYJ Reporting Station
Broken Clouds Broken Clouds  
Wind Chill: 36°   Ceiling: 8600
Heat Index: 39°   Visibility: 30mi
Dew Point: 39°   Wind: 5mph
Humidity: 100%   Direction: 300°WNW
Pressure: 30.39"   Gusts: NA
Location:  48.68°N, 123.6°W
Report Text: CYYJ 291400Z 30004KT 30SM FEW069 BKN086 04/04 A3039 RMK AC2AC5 SLP292
Loading
Personal Weather Stations






























Interactive Weather Map New forecast layout! Learn more

10-Day Weather Forecast

Advertisements
Track Severe Weather on mobile